• Join FlightAware (Why Join?)
  • Login
  • US Flag 
08:01AM EST


 

Airport Tracker/Info


-or-


 

Live Flight TrackerFlight Track Log ✈ SWA558 ✈ 15-Apr-2013 ✈ KRSW - KMDW

Flight Track Log - Related Links

Times and Time Zones

All times are in EDT time to prevent confusion due to time zone crossing. See the SWA558 flight status page for this flight to view local times or setup timezone preferences in your user account.

Time Position Orientation Groundspeed Altitude Reporting Facility
EDT Latitude Longitude Course Direction KTS MPH feet Rate Location/Type
12:25PM 26.5758 -81.8456 346° North 266 306 5,100  Level Miami Center
12:26PM 26.6514 -81.8281 12° North 293 337 8,300 2,450 Climbing Miami Center
12:27PM 26.7400 -81.8061 12° North 303 349 10,000 850 Climbing Miami Center
12:28PM 26.8367 -81.7869 10° North 330 380 10,000  Level Miami Center
12:29PM 27.1715 -81.7929 347° North  Level FlightAware Approximate
12:29PM 26.9356 -81.7633 12° North 344 396 10,000  Level Miami Center
12:30PM 27.2768 -81.8220 346° North  Level FlightAware Approximate
12:30PM 27.0319 -81.7533 North 349 402 11,800  Level Miami Center
12:31PM 27.1311 -81.7831 345° North 356 410 14,700 2,950 Climbing Miami Center
12:32PM 27.2364 -81.8181 344° North 370 426 17,700 2,950 Climbing Miami Center
12:33PM 27.3500 -81.8533 345° North 379 436 20,600 2,500 Climbing Miami Center
12:34PM 27.4572 -81.8906 343° North 390 449 22,700 2,050 Climbing Miami Center
12:35PM 27.5664 -81.9306 342° North 407 468 24,700 1,850 Climbing Miami Center
12:36PM 27.6714 -81.9703 341° North 418 481 26,400 1,698 Climbing Miami Center
12:38PM 27.9864 -82.0206 352° North 450 518 30,500 1,727 Climbing Jacksonville Center
12:39PM 28.1033 -82.0597 344° North 450 518 32,300 1,700 Climbing Jacksonville Center
12:40PM 28.2206 -82.0964 345° North 439 505 33,900 1,600 Climbing Jacksonville Center
12:41PM 28.3375 -82.1308 345° North 432 497 35,500 1,250 Climbing Jacksonville Center
12:42PM 28.4525 -82.1678 344° North 426 490 36,400 900 Climbing Jacksonville Center
12:43PM 28.5656 -82.2072 343° North 426 490 37,300 750 Climbing Jacksonville Center
12:44PM 28.6825 -82.2417 346° North 426 490 37,900 300 Climbing Jacksonville Center
12:45PM 28.7994 -82.2789 344° North 426 490 37,900  Level Jacksonville Center
12:46PM 28.9167 -82.3161 344° North 426 490 37,900  Level Jacksonville Center
12:47PM 29.0317 -82.3511 345° North 426 490 37,900  Level Jacksonville Center
12:48PM 29.1444 -82.3908 343° North 426 490 37,900  Level Jacksonville Center
12:49PM 29.2594 -82.4261 345° North 426 490 37,900  Level Jacksonville Center
12:50PM 29.3764 -82.4611 345° North 426 490 37,900  Level Jacksonville Center
12:51PM 29.4914 -82.4989 344° North 426 490 37,900  Level Jacksonville Center
12:52PM 29.6042 -82.5342 345° North 421 484 37,900  Level Jacksonville Center
12:53PM 29.7086 -82.5675 345° North 421 484 37,900  Level Jacksonville Center
12:54PM 29.8214 -82.6028 345° North 421 484 37,900  Level Jacksonville Center
12:55PM 29.9364 -82.6408 344° North 421 484 37,900  Level Jacksonville Center
12:56PM 30.0514 -82.6789 344° North 421 484 37,900  Level Jacksonville Center
12:57PM 30.1642 -82.7172 344° North 421 484 37,900  Level Jacksonville Center
12:58PM 30.2769 -82.7531 345° North 421 484 37,900  Level Jacksonville Center
12:59PM 30.3939 -82.7914 344° North 421 484 37,900  Level Jacksonville Center
01:00PM 30.5067 -82.8300 344° North 421 484 37,900  Level Jacksonville Center
01:01PM 30.6131 -82.8708 342° North 416 479 37,900  Level Jacksonville Center
01:02PM 30.7300 -82.9069 345° North 416 479 37,900  Level Jacksonville Center
01:03PM 30.8428 -82.9483 343° North 421 484 37,900  Level Jacksonville Center
01:04PM 30.9681 -82.9847 346° North 421 484 37,900  Level Jacksonville Center
01:06PM 31.1750 -83.0536 344° North 407 468 37,900  Level Atlanta Center
01:07PM 31.2881 -83.0911 344° North 407 468 37,900  Level Atlanta Center
01:08PM 31.4011 -83.1289 344° North 407 468 37,900  Level Atlanta Center
01:09PM 31.5139 -83.1692 343° North 413 475 37,900  Level Atlanta Center
01:10PM 31.6417 -83.2094 345° North 426 490 37,900  Level Atlanta Center
01:11PM 31.7567 -83.2500 343° North 426 490 37,900  Level Atlanta Center
01:12PM 31.8717 -83.2881 344° North 426 490 37,900  Level Atlanta Center
01:13PM 31.9908 -83.3286 344° North 426 490 37,900  Level Atlanta Center
01:14PM 32.1081 -83.3669 345° North 426 490 37,900  Level Atlanta Center
01:15PM 32.2231 -83.4078 343° North 431 496 37,900  Level Atlanta Center
01:16PM 32.3400 -83.4489 343° North 431 496 37,900  Level Atlanta Center
01:17PM 32.4572 -83.4900 344° North 436 502 37,900  Level Atlanta Center
01:18PM 32.5742 -83.5311 343° North 436 502 37,900  Level Atlanta Center
01:19PM 32.6933 -83.5722 344° North 436 502 37,900  Level Atlanta Center
01:20PM 32.8061 -83.6114 344° North 436 502 37,900  Level Atlanta Center
01:21PM 32.9211 -83.6503 344° North 436 502 37,900  Level Atlanta Center
01:22PM 33.0381 -83.6919 343° North 436 502 37,900  Level Atlanta Center
01:23PM 33.1531 -83.7336 343° North 431 496 37,900  Level Atlanta Center
01:24PM 33.2700 -83.7756 343° North 436 502 37,900  Level Atlanta Center
01:25PM 33.3869 -83.8150 344° North 436 502 37,900  Level Atlanta Center
01:26PM 33.5019 -83.8544 344° North 436 502 37,900  Level Atlanta Center
01:27PM 33.6208 -83.8967 344° North 436 502 37,900  Level Atlanta Center
01:28PM 33.7378 -83.9364 344° North 436 502 37,900  Level Atlanta Center
01:29PM 33.8528 -83.9761 344° North 436 502 37,900  Level Atlanta Center
01:30PM 33.9717 -84.0189 343° North 436 502 37,900  Level Atlanta Center
01:31PM 34.0886 -84.0614 343° North 436 502 37,900  Level Atlanta Center
01:32PM 34.2075 -84.1017 344° North 436 502 37,900  Level Atlanta Center
01:33PM 34.3222 -84.1444 343° North 436 502 37,900  Level Atlanta Center
01:34PM 34.4411 -84.1875 343° North 436 502 37,900  Level Atlanta Center
01:35PM 34.5581 -84.2306 343° North 436 502 37,900  Level Atlanta Center
01:36PM 34.6747 -84.2711 344° North 431 496 37,900  Level Atlanta Center
01:37PM 34.7894 -84.3169 342° North 431 496 37,900  Level Atlanta Center
01:38PM 34.8936 -84.3528 344° North 436 502 37,900  Level Atlanta Center
01:39PM 35.0147 -84.4014 342° North 429 494 37,900  Level Atlanta Center
01:40PM 35.1292 -84.4425 344° North 423 487 37,900  Level Atlanta Center
01:41PM 35.2439 -84.4839 344° North 423 487 37,900  Level Atlanta Center
01:42PM 35.3606 -84.5253 344° North 423 487 37,900  Level Atlanta Center
01:43PM 35.4731 -84.5692 342° North 423 487 37,900  Level Atlanta Center
01:44PM 35.5897 -84.6108 344° North 423 487 37,900  Level Atlanta Center
01:45PM 35.7022 -84.6525 343° North 423 487 37,900  Level Atlanta Center
01:46PM 35.8189 -84.6944 344° North 423 487 37,900  Level Atlanta Center
01:48PM 36.0483 -84.7806 343° North 436 502 37,900  Level Indianapolis Center
01:50PM 36.1861 -84.8333 343° North 436 502 37,900  Level Indianapolis Center
01:51PM 36.3014 -84.8772 343° North 436 502 37,900  Level Indianapolis Center
01:52PM 36.4175 -84.9211 343° North 437 503 37,900  Level Indianapolis Center
01:53PM 36.5319 -84.9650 343° North 432 497 37,900  Level Indianapolis Center
01:54PM 36.6478 -85.0094 343° North 433 498 37,900  Level Indianapolis Center
01:55PM 36.7628 -85.0536 343° North 433 498 37,900  Level Indianapolis Center
01:56PM 36.8775 -85.0981 343° North 431 496 37,900  Level Indianapolis Center
01:57PM 37.0147 -85.1497 343° North 430 495 37,900  Level Indianapolis Center
01:58PM 37.1278 -85.1931 343° North 428 493 37,900  Level Indianapolis Center
01:59PM 37.2414 -85.2381 342° North 427 491 37,900  Level Indianapolis Center
02:00PM 37.3553 -85.2822 343° North 426 490 37,900  Level Indianapolis Center
02:01PM 37.4681 -85.3258 343° North 423 487 37,900 49 Level Indianapolis Center
02:02PM 37.5803 -85.3719 342° North 422 486 38,000  Climbing Indianapolis Center
02:03PM 37.7117 -85.4225 343° North 423 487 37,900  Descending Indianapolis Center
02:04PM 37.8261 -85.4628 344° North 423 487 38,000 -244 Climbing Indianapolis Center
02:05PM 37.9553 -85.4878 351° North 447 514 37,400 -774 Descending Indianapolis Center
02:06PM 38.0783 -85.5144 350° North 447 514 36,400 -919 Descending Indianapolis Center
02:07PM 38.2022 -85.5411 350° North 450 518 35,500 -927 Descending Indianapolis Center
02:08PM 38.3253 -85.5672 351° North 448 516 34,500 -780 Descending Indianapolis Center
02:09PM 38.4494 -85.5944 350° North 452 520 33,900 -244 Descending Indianapolis Center
02:10PM 38.5717 -85.6203 351° North 447 514 34,000 49 Climbing Indianapolis Center
02:11PM 38.6967 -85.6478 350° North 452 520 34,000 -435 Level Indianapolis Center
02:12PM 38.8206 -85.6744 350° North 452 520 33,100 -1,024 Descending Indianapolis Center
02:13PM 38.9717 -85.7083 350° North 459 528 31,900 -1,024 Descending Indianapolis Center
02:14PM 39.0978 -85.7356 350° North 459 528 31,000 -919 Descending Indianapolis Center
02:15PM 39.2242 -85.7622 351° North 459 528 30,000 -927 Descending Indianapolis Center
02:16PM 39.3522 -85.7911 350° North 464 534 29,100 -488 Descending Indianapolis Center
02:17PM 39.4797 -85.8206 350° North 464 534 29,000 -242 Descending Indianapolis Center
02:18PM 39.6039 -85.8475 351° North 458 527 28,600 -829 Descending Indianapolis Center
02:19PM 39.7492 -85.8806 350° North 461 531 27,300 -1,268 Descending Indianapolis Center
02:20PM 39.8764 -85.9100 350° North 461 531 26,000 -1,452 Descending Indianapolis Center
02:21PM 40.0039 -85.9378 351° North 459 528 24,300 -976 Descending Indianapolis Center
02:22PM 40.1358 -85.9675 350° North 459 528 24,000 -188 Descending Indianapolis Center
02:23PM 40.2092 -85.9844 350° North 463 533 24,000 -433 Level Chicago Center
02:24PM 40.3358 -86.0136 350° North 461 531 23,300 -823 Descending Chicago Center
02:25PM 40.4606 -86.0417 350° North 455 524 22,300 -629 Descending Chicago Center
02:26PM 40.5872 -86.0561 355° North 462 532 22,000 -145 Descending Chicago Center
02:27PM 40.7153 -86.0544 North 461 531 22,000 -435 Level Chicago Center
02:28PM 40.8425 -86.0592 358° North 458 527 21,100 -2,565 Descending Chicago Center
02:29PM 40.9292 -86.1906 311° West 403 464 16,700 -3,581 Descending Chicago Center
02:30PM 40.9903 -86.3142 303° West 402 463 13,700 -2,710 Descending Chicago Center
02:31PM 41.0497 -86.4350 303° West 393 452 11,100 -1,500 Descending Chicago Center
02:32PM 41.1186 -86.5417 311° West 382 440 10,600 -528 Descending Chicago Center
02:33PM 41.1872 -86.6478 311° West 381 438 10,000 -240 Descending Chicago Center
02:34PM 41.2461 -86.7383 311° West 326 375 10,100 48 Climbing Chicago Center
02:35PM 41.3017 -86.8231 311° West 311 358 10,100 -97 Level Chicago Center
02:36PM 41.3683 -86.9272 310° West 310 357 9,900 -581 Descending Chicago Center
02:37PM 41.4189 -87.0069 310° West 293 337 8,900 -1,258 Descending Chicago Center
02:39PM 41.4697 -87.0853 311° West 285 328 7,300 -1,355 Descending Chicago Center
02:40PM 41.5119 -87.1708 303° West 282 325 6,100 -1,158 Descending Chicago Center
02:40PM 41.5500 -87.2667 298° West 268 308 5,100 -1,018 Descending Chicago TRACON
02:41PM 41.5667 -87.3500 285° West 256 295 4,200 -550 Descending Chicago TRACON
02:42PM 41.6000 -87.4333 298° West 251 289 4,000 -160 Descending Chicago TRACON
02:43PM 41.6044 -87.4486 291° West 255 293 4,000  Level Chicago Center
02:44PM 41.6322 -87.5264 296° West 245 282 4,000 -145 Level Chicago Center
02:45PM 41.6678 -87.5894 307° West 230 265 3,700 -750 Descending Chicago Center
02:45PM 41.7000 -87.6333 315° West 224 258 2,700 -1,000 Descending Chicago TRACON
02:46PM 41.7500 -87.7000 315° West 218 251 2,000 -600 Descending Chicago TRACON
02:47PM 41.8000 -87.7000 360° North 170 196 1,500 -550 Descending Chicago TRACON
02:48PM 41.8000 -87.7333 270° West 143 165 900 -600 Descending Chicago TRACON
02:51PM 41.7833 -87.7500 246° West  Level FlightAware Approximate